createdAt,value
2018-12-27T00:00:15.677Z,175.40
2018-12-27T00:01:14.008Z,150.60
2018-12-27T00:02:13.988Z,176.90
2018-12-27T00:03:13.975Z,183.00
2018-12-27T00:04:13.992Z,170.50
2018-12-27T00:05:13.962Z,176.80
2018-12-27T00:06:13.957Z,182.10
2018-12-27T00:07:13.944Z,146.70
2018-12-27T00:08:13.949Z,178.30
2018-12-27T00:09:13.908Z,170.20
2018-12-27T00:10:13.916Z,162.80
2018-12-27T00:11:13.896Z,145.30
2018-12-27T00:12:13.885Z,113.20
2018-12-27T00:13:13.871Z,122.90
2018-12-27T00:14:13.857Z,132.50
2018-12-27T00:15:13.908Z,150.10
2018-12-27T00:16:13.838Z,168.80
2018-12-27T00:17:13.880Z,132.40
2018-12-27T00:18:13.833Z,144.30
2018-12-27T00:19:13.808Z,140.30
2018-12-27T00:20:13.797Z,150.10
2018-12-27T00:21:13.814Z,129.00
2018-12-27T00:22:13.786Z,126.20
2018-12-27T00:23:13.776Z,119.90
2018-12-27T00:24:13.767Z,141.10
2018-12-27T00:25:13.740Z,125.60
2018-12-27T00:26:13.740Z,129.10
2018-12-27T00:27:13.738Z,111.90
2018-12-27T00:28:13.718Z,116.80
2018-12-27T00:29:13.706Z,125.50
2018-12-27T00:30:13.697Z,106.10
2018-12-27T00:31:13.685Z,143.30
2018-12-27T00:32:13.715Z,136.10
2018-12-27T00:33:13.661Z,102.90
2018-12-27T00:34:13.667Z,118.10
2018-12-27T00:35:13.647Z,135.00
2018-12-27T00:36:13.635Z,127.30
2018-12-27T00:37:13.621Z,119.00
2018-12-27T00:38:13.635Z,134.10
2018-12-27T00:39:13.603Z,108.10
2018-12-27T00:40:13.594Z,109.30
2018-12-27T00:41:13.580Z,129.80
2018-12-27T00:42:13.577Z,104.10
2018-12-27T00:43:13.579Z,107.70
2018-12-27T00:44:13.572Z,108.50
2018-12-27T00:45:13.536Z,141.30
2018-12-27T00:46:13.520Z,104.90
2018-12-27T00:47:13.515Z,108.10
2018-12-27T00:48:13.608Z,99.20
2018-12-27T00:49:13.539Z,95.50
2018-12-27T00:50:13.486Z,97.80
2018-12-27T00:51:13.476Z,105.00
2018-12-27T00:52:13.467Z,92.30
2018-12-27T00:53:13.465Z,103.60
2018-12-27T00:54:13.438Z,116.80
2018-12-27T00:55:13.459Z,118.40
2018-12-27T00:56:13.422Z,96.30
2018-12-27T00:57:13.425Z,118.20
2018-12-27T00:58:13.394Z,113.00
2018-12-27T00:59:13.392Z,89.50
2018-12-27T01:00:13.399Z,92.00
2018-12-27T01:01:13.401Z,96.00
2018-12-27T01:02:13.389Z,102.70
2018-12-27T01:03:13.349Z,91.60
2018-12-27T01:04:13.338Z,118.80
2018-12-27T01:05:13.331Z,92.50
2018-12-27T01:06:13.327Z,138.50
2018-12-27T01:07:13.323Z,95.60
2018-12-27T01:08:13.287Z,126.90
2018-12-27T01:09:13.280Z,95.50
2018-12-27T01:10:13.286Z,117.20
2018-12-27T01:11:13.273Z,125.10
2018-12-27T01:12:13.289Z,112.50
2018-12-27T01:13:13.244Z,111.90
2018-12-27T01:14:13.234Z,98.20
2018-12-27T01:15:13.252Z,101.00
2018-12-27T01:16:13.206Z,111.00
2018-12-27T01:17:13.207Z,91.20
2018-12-27T01:18:13.217Z,103.90
2018-12-27T01:19:13.178Z,85.70
2018-12-27T01:20:13.194Z,82.50
2018-12-27T01:21:13.167Z,100.70
2018-12-27T01:22:13.160Z,91.50
2018-12-27T01:23:13.138Z,104.20
2018-12-27T01:24:13.150Z,76.00
2018-12-27T01:25:13.128Z,90.30
2018-12-27T01:26:13.102Z,105.30
2018-12-27T01:27:13.093Z,89.30
2018-12-27T01:28:13.084Z,93.60
2018-12-27T01:29:13.112Z,107.00
2018-12-27T01:30:13.075Z,113.40
2018-12-27T01:31:13.049Z,88.70
2018-12-27T01:32:13.045Z,83.80
2018-12-27T01:33:18.685Z,110.90
2018-12-27T01:34:14.042Z,96.40
2018-12-27T01:35:13.007Z,91.90
2018-12-27T01:36:13.004Z,122.70
2018-12-27T01:37:12.995Z,97.90
2018-12-27T01:38:12.991Z,104.80
2018-12-27T01:39:12.978Z,91.90
2018-12-27T01:40:12.991Z,100.90
2018-12-27T01:41:12.951Z,93.80
2018-12-27T01:42:12.941Z,119.90
2018-12-27T01:43:12.928Z,109.60
2018-12-27T01:44:12.915Z,112.90
2018-12-27T01:45:12.940Z,95.10
2018-12-27T01:46:12.926Z,89.80
2018-12-27T01:47:12.891Z,95.90
2018-12-27T01:48:12.872Z,117.10
2018-12-27T01:49:12.857Z,96.00
2018-12-27T01:50:12.849Z,103.10
2018-12-27T01:51:12.867Z,89.90
2018-12-27T01:52:12.855Z,107.50
2018-12-27T01:53:12.823Z,116.20
2018-12-27T01:54:12.815Z,93.40
2018-12-27T01:55:12.796Z,83.10
2018-12-27T01:56:12.789Z,106.40
2018-12-27T01:57:12.910Z,94.50
2018-12-27T01:58:12.768Z,79.90
2018-12-27T01:59:12.760Z,85.80
2018-12-27T02:00:12.744Z,85.10
2018-12-27T02:01:12.742Z,86.90
2018-12-27T02:02:12.734Z,81.90
2018-12-27T02:03:12.733Z,82.80
2018-12-27T02:04:12.705Z,85.50
2018-12-27T02:05:12.695Z,85.80
2018-12-27T02:06:12.679Z,76.70
2018-12-27T02:07:12.672Z,83.30
2018-12-27T02:08:12.688Z,95.70
2018-12-27T02:09:12.655Z,81.20
2018-12-27T02:10:12.639Z,76.80
2018-12-27T02:11:12.628Z,88.60
2018-12-27T02:12:12.616Z,89.30
2018-12-27T02:13:12.608Z,70.70
2018-12-27T02:14:12.628Z,115.00
2018-12-27T02:15:12.580Z,93.90
2018-12-27T02:16:12.572Z,84.10
2018-12-27T02:17:12.575Z,79.10
2018-12-27T02:18:12.565Z,84.30
2018-12-27T02:19:12.560Z,73.10
2018-12-27T02:20:12.564Z,74.10
2018-12-27T02:21:12.537Z,96.90
2018-12-27T02:22:12.518Z,88.80
2018-12-27T02:23:12.519Z,95.00
2018-12-27T02:24:12.541Z,83.40
2018-12-27T02:25:12.476Z,116.40
2018-12-27T02:26:12.490Z,74.80
2018-12-27T02:27:12.466Z,82.20
2018-12-27T02:28:12.446Z,102.40
2018-12-27T02:29:12.433Z,82.10
2018-12-27T02:30:12.421Z,104.50
2018-12-27T02:31:12.433Z,80.50
2018-12-27T02:32:12.410Z,67.70
2018-12-27T02:33:12.399Z,83.50
2018-12-27T02:34:12.390Z,73.70
2018-12-27T02:35:12.375Z,92.00
2018-12-27T02:36:12.360Z,101.70
2018-12-27T02:37:12.370Z,82.00
2018-12-27T02:38:12.342Z,97.30
2018-12-27T02:39:12.345Z,90.70
2018-12-27T02:40:12.323Z,97.30
2018-12-27T02:41:12.329Z,97.90
2018-12-27T02:42:12.371Z,99.70
2018-12-27T02:43:12.320Z,99.10
2018-12-27T02:44:12.272Z,90.30
2018-12-27T02:45:12.267Z,105.70
2018-12-27T02:46:12.254Z,107.10
2018-12-27T02:47:12.251Z,127.70
2018-12-27T02:48:12.263Z,100.80
2018-12-27T02:49:12.248Z,94.50
2018-12-27T02:50:12.213Z,118.40
2018-12-27T02:51:12.199Z,78.70
2018-12-27T02:52:12.182Z,79.40
2018-12-27T02:53:12.178Z,85.80
2018-12-27T02:54:12.232Z,83.70
2018-12-27T02:55:12.187Z,83.00
2018-12-27T02:56:12.139Z,106.30
2018-12-27T02:57:12.143Z,89.00
2018-12-27T02:58:12.133Z,80.00
2018-12-27T02:59:12.110Z,84.40
2018-12-27T03:00:12.124Z,94.40
2018-12-27T03:01:12.094Z,105.80
2018-12-27T03:02:12.083Z,83.90
2018-12-27T03:03:12.066Z,98.70
2018-12-27T03:04:12.065Z,74.10
2018-12-27T03:05:12.086Z,82.10
2018-12-27T03:06:12.078Z,80.10
2018-12-27T03:07:12.052Z,80.30
2018-12-27T03:08:12.041Z,90.10
2018-12-27T03:09:12.037Z,89.60
2018-12-27T03:10:12.019Z,76.00
2018-12-27T03:11:12.012Z,92.30
2018-12-27T03:12:11.991Z,79.20
2018-12-27T03:13:11.959Z,83.90
2018-12-27T03:14:11.955Z,81.70
2018-12-27T03:15:11.959Z,90.90
2018-12-27T03:16:11.949Z,94.10
2018-12-27T03:17:11.956Z,82.20
2018-12-27T03:18:11.976Z,80.00
2018-12-27T03:19:11.902Z,84.60
2018-12-27T03:20:11.889Z,94.30
2018-12-27T03:21:11.896Z,84.90
2018-12-27T03:22:11.872Z,98.40
2018-12-27T03:23:11.902Z,82.60
2018-12-27T03:24:11.851Z,105.10
2018-12-27T03:25:11.842Z,87.40
2018-12-27T03:26:11.830Z,120.80
2018-12-27T03:27:11.821Z,92.60
2018-12-27T03:28:11.810Z,87.50
2018-12-27T03:29:11.809Z,114.00
2018-12-27T03:30:11.837Z,116.30
2018-12-27T03:31:11.770Z,69.20
2018-12-27T03:32:11.760Z,89.60
2018-12-27T03:33:11.773Z,101.30
2018-12-27T03:34:11.770Z,120.40
2018-12-27T03:35:11.738Z,106.60
2018-12-27T03:36:11.721Z,99.10
2018-12-27T03:37:11.714Z,109.60
2018-12-27T03:38:11.701Z,78.70
2018-12-27T03:39:11.697Z,89.50
2018-12-27T03:40:11.734Z,96.30
2018-12-27T03:41:11.663Z,68.00
2018-12-27T03:42:11.676Z,87.70
2018-12-27T03:43:11.656Z,90.40
2018-12-27T03:44:11.635Z,112.60
2018-12-27T03:45:11.636Z,93.50
2018-12-27T03:46:11.642Z,105.90
2018-12-27T03:47:11.603Z,89.40
2018-12-27T03:48:11.607Z,100.50
2018-12-27T03:49:11.587Z,81.30
2018-12-27T03:50:11.580Z,98.70
2018-12-27T03:51:11.596Z,94.40
2018-12-27T03:52:11.554Z,100.00
2018-12-27T03:53:11.535Z,93.50
2018-12-27T03:54:11.539Z,105.40
2018-12-27T03:55:11.514Z,115.10
2018-12-27T03:56:11.510Z,107.80
2018-12-27T03:57:11.527Z,151.70
2018-12-27T03:58:11.490Z,109.20
2018-12-27T03:59:11.495Z,111.70
2018-12-27T04:00:11.498Z,133.20
2018-12-27T04:01:11.456Z,112.00
2018-12-27T04:02:11.446Z,99.40
2018-12-27T04:03:11.466Z,111.00
2018-12-27T04:04:11.425Z,95.60
2018-12-27T04:05:11.409Z,123.60
2018-12-27T04:06:11.399Z,99.70
2018-12-27T04:07:11.392Z,101.00
2018-12-27T04:08:11.386Z,107.20
2018-12-27T04:09:11.438Z,106.20
2018-12-27T04:10:11.355Z,132.80
2018-12-27T04:11:11.347Z,92.10
2018-12-27T04:12:11.346Z,114.80
2018-12-27T04:13:11.325Z,106.40
2018-12-27T04:14:11.319Z,101.60
2018-12-27T04:15:11.345Z,98.50
2018-12-27T04:16:11.297Z,114.70
2018-12-27T04:17:11.295Z,103.80
2018-12-27T04:18:11.286Z,110.10
2018-12-27T04:19:11.274Z,119.40
2018-12-27T04:20:11.255Z,109.50
2018-12-27T04:21:11.339Z,110.70
2018-12-27T04:22:11.229Z,98.70
2018-12-27T04:23:11.222Z,109.30
2018-12-27T04:24:11.214Z,142.20
2018-12-27T04:25:11.195Z,120.60
2018-12-27T04:26:11.193Z,121.60
2018-12-27T04:27:11.225Z,143.10
2018-12-27T04:28:11.163Z,120.20
2018-12-27T04:29:11.159Z,102.20
2018-12-27T04:30:11.160Z,126.70
2018-12-27T04:31:11.139Z,114.80
2018-12-27T04:32:11.129Z,127.90
2018-12-27T04:33:11.162Z,125.70
2018-12-27T04:34:11.105Z,107.40
2018-12-27T04:35:11.113Z,135.90
2018-12-27T04:36:11.109Z,135.60
2018-12-27T04:37:11.068Z,90.10
2018-12-27T04:38:11.063Z,112.00
2018-12-27T04:39:11.074Z,123.40
2018-12-27T04:40:11.037Z,119.00
2018-12-27T04:41:11.077Z,119.80
2018-12-27T04:42:11.027Z,147.70
2018-12-27T04:43:11.033Z,138.50
2018-12-27T04:44:11.000Z,133.00
2018-12-27T04:45:11.019Z,144.00
2018-12-27T04:46:10.980Z,148.20
2018-12-27T04:47:10.974Z,131.80
2018-12-27T04:48:10.953Z,96.30
2018-12-27T04:49:10.946Z,112.60
2018-12-27T04:50:10.944Z,127.90
2018-12-27T04:51:10.947Z,148.30
2018-12-27T04:52:10.906Z,130.90
2018-12-27T04:53:10.906Z,133.00
2018-12-27T04:54:10.916Z,138.20
2018-12-27T04:55:10.881Z,145.30
2018-12-27T04:56:10.888Z,149.00
2018-12-27T04:57:10.895Z,163.50
2018-12-27T04:58:10.850Z,137.30
2018-12-27T04:59:10.939Z,133.20
2018-12-27T05:00:10.957Z,131.60
2018-12-27T05:01:10.838Z,155.10
2018-12-27T05:02:10.809Z,151.80
2018-12-27T05:03:10.819Z,165.00
2018-12-27T05:04:17.840Z,122.70
2018-12-27T05:05:11.794Z,131.20
2018-12-27T05:06:10.765Z,144.50
2018-12-27T05:07:10.754Z,156.30
2018-12-27T05:08:10.739Z,197.80
2018-12-27T05:09:10.846Z,132.90
2018-12-27T05:10:10.713Z,129.10
2018-12-27T05:11:10.706Z,137.80
2018-12-27T05:12:10.694Z,122.00
2018-12-27T05:13:10.686Z,141.00
2018-12-27T05:14:10.749Z,136.30
2018-12-27T05:15:10.668Z,148.10
2018-12-27T05:16:10.655Z,124.10
2018-12-27T05:17:10.636Z,164.50
2018-12-27T05:18:10.626Z,181.60
2018-12-27T05:19:10.613Z,155.00
2018-12-27T05:20:10.636Z,172.70
2018-12-27T05:21:10.611Z,140.80
2018-12-27T05:22:10.594Z,128.70
2018-12-27T05:23:10.576Z,143.20
2018-12-27T05:24:10.580Z,135.20
2018-12-27T05:25:10.551Z,128.20
2018-12-27T05:26:10.574Z,132.70
2018-12-27T05:27:10.547Z,129.10
2018-12-27T05:28:10.521Z,168.40
2018-12-27T05:29:10.511Z,129.90
2018-12-27T05:30:10.496Z,126.80
2018-12-27T05:31:10.487Z,137.00
2018-12-27T05:32:10.548Z,139.50
2018-12-27T05:33:10.470Z,134.00
2018-12-27T05:34:10.453Z,128.60
2018-12-27T05:35:10.441Z,127.90
2018-12-27T05:36:10.432Z,130.00
2018-12-27T05:37:10.421Z,123.00
2018-12-27T05:38:10.452Z,144.30
2018-12-27T05:39:10.394Z,123.00
2018-12-27T05:40:10.383Z,121.50
2018-12-27T05:41:10.387Z,147.00
2018-12-27T05:42:10.372Z,115.40
2018-12-27T05:43:10.359Z,121.90
2018-12-27T05:44:10.361Z,129.80
2018-12-27T05:45:10.342Z,125.80
2018-12-27T05:46:10.341Z,111.40
2018-12-27T05:47:10.308Z,106.30
2018-12-27T05:48:10.299Z,94.20
2018-12-27T05:49:10.332Z,102.80
2018-12-27T05:50:10.293Z,128.70
2018-12-27T05:51:10.277Z,110.00
2018-12-27T05:52:10.254Z,115.40
2018-12-27T05:53:10.253Z,122.70
2018-12-27T05:54:10.363Z,112.20
2018-12-27T05:55:10.254Z,103.50
2018-12-27T05:56:10.231Z,94.20
2018-12-27T05:57:10.206Z,112.70
2018-12-27T05:58:10.218Z,116.20
2018-12-27T05:59:10.197Z,147.40
2018-12-27T06:00:10.183Z,107.30
2018-12-27T06:01:10.188Z,100.90
2018-12-27T06:02:10.171Z,114.00
2018-12-27T06:03:10.144Z,104.10
2018-12-27T06:04:10.176Z,106.90
2018-12-27T06:05:10.118Z,104.50
2018-12-27T06:06:10.140Z,100.40
2018-12-27T06:07:10.096Z,124.60
2018-12-27T06:08:10.096Z,104.10
2018-12-27T06:09:10.069Z,103.20
2018-12-27T06:10:10.061Z,111.00
2018-12-27T06:11:10.066Z,104.40
2018-12-27T06:12:10.066Z,115.70
2018-12-27T06:13:10.040Z,85.70
2018-12-27T06:14:10.026Z,97.10
2018-12-27T06:15:10.005Z,101.40
2018-12-27T06:16:09.992Z,106.50
2018-12-27T06:17:09.983Z,131.00
2018-12-27T06:18:09.989Z,110.40
2018-12-27T06:19:09.967Z,94.00
2018-12-27T06:20:09.954Z,91.70
2018-12-27T06:21:09.937Z,110.60
2018-12-27T06:22:09.935Z,113.50
2018-12-27T06:23:09.950Z,108.10
2018-12-27T06:24:09.917Z,85.20
2018-12-27T06:25:09.907Z,91.80
2018-12-27T06:26:09.899Z,105.90
2018-12-27T06:27:09.882Z,101.60
2018-12-27T06:28:09.932Z,94.50
2018-12-27T06:29:09.885Z,79.10
2018-12-27T06:30:09.851Z,126.60
2018-12-27T06:31:09.840Z,88.40
2018-12-27T06:32:09.819Z,92.00
2018-12-27T06:33:09.810Z,90.00
2018-12-27T06:34:09.815Z,105.20
2018-12-27T06:35:09.815Z,88.00
2018-12-27T06:36:09.781Z,104.40
2018-12-27T06:37:09.770Z,84.80
2018-12-27T06:38:09.784Z,93.60
2018-12-27T06:39:09.742Z,103.90
2018-12-27T06:40:09.767Z,84.60
2018-12-27T06:41:09.727Z,91.80
2018-12-27T06:42:09.729Z,103.50
2018-12-27T06:43:09.721Z,84.90
2018-12-27T06:44:09.695Z,115.80
2018-12-27T06:45:09.688Z,94.90
2018-12-27T06:46:09.703Z,98.40
2018-12-27T06:47:09.667Z,102.90
2018-12-27T06:48:09.670Z,110.30
2018-12-27T06:49:09.642Z,98.00
2018-12-27T06:50:09.623Z,94.00
2018-12-27T06:51:09.624Z,99.90
2018-12-27T06:52:09.641Z,87.70
2018-12-27T06:53:09.597Z,107.20
2018-12-27T06:54:09.608Z,100.80
2018-12-27T06:55:09.604Z,107.00
2018-12-27T06:56:09.560Z,98.30
2018-12-27T06:57:09.608Z,88.40
2018-12-27T06:58:09.548Z,93.30
2018-12-27T06:59:09.555Z,100.00
2018-12-27T07:00:09.516Z,128.80
2018-12-27T07:01:09.510Z,95.40
2018-12-27T07:02:09.498Z,89.20
2018-12-27T07:03:09.521Z,95.40
2018-12-27T07:04:09.488Z,102.50
2018-12-27T07:05:09.469Z,105.40
2018-12-27T07:06:09.471Z,91.90
2018-12-27T07:07:09.446Z,95.30
2018-12-27T07:08:09.432Z,96.60
2018-12-27T07:09:09.445Z,75.90
2018-12-27T07:10:09.426Z,98.00
2018-12-27T07:11:09.410Z,109.70
2018-12-27T07:12:09.394Z,88.10
2018-12-27T07:13:09.399Z,112.70
2018-12-27T07:14:09.393Z,99.20
2018-12-27T07:15:09.365Z,101.90
2018-12-27T07:16:09.369Z,109.70
2018-12-27T07:17:09.334Z,121.10
2018-12-27T07:18:09.329Z,123.10
2018-12-27T07:19:09.341Z,103.50
2018-12-27T07:20:09.341Z,94.90
2018-12-27T07:21:09.297Z,97.90
2018-12-27T07:22:09.281Z,105.00
2018-12-27T07:23:09.274Z,116.30
2018-12-27T07:24:09.267Z,115.30
2018-12-27T07:25:09.250Z,126.60
2018-12-27T07:26:09.274Z,94.00
2018-12-27T07:27:09.230Z,101.30
2018-12-27T07:28:09.273Z,133.70
2018-12-27T07:29:09.211Z,98.90
2018-12-27T07:30:09.201Z,110.60
2018-12-27T07:31:09.220Z,113.90
2018-12-27T07:32:09.191Z,101.00
2018-12-27T07:33:09.198Z,108.40
2018-12-27T07:34:09.156Z,105.00
2018-12-27T07:35:09.178Z,96.70
2018-12-27T07:36:09.130Z,111.90
2018-12-27T07:37:09.314Z,95.20
2018-12-27T07:38:09.114Z,101.40
2018-12-27T07:39:09.106Z,97.10
2018-12-27T07:40:09.092Z,114.80
2018-12-27T07:41:09.084Z,99.70
2018-12-27T07:42:09.075Z,92.10
2018-12-27T07:43:09.097Z,94.50
2018-12-27T07:44:09.090Z,110.50
2018-12-27T07:45:09.060Z,100.00
2018-12-27T07:46:10.954Z,106.50
2018-12-27T07:47:09.016Z,111.60
2018-12-27T07:48:09.039Z,118.60
2018-12-27T07:49:09.004Z,136.50
2018-12-27T07:50:08.987Z,124.40
2018-12-27T07:51:08.979Z,120.80
2018-12-27T07:52:09.013Z,97.70
2018-12-27T07:53:08.958Z,99.70
2018-12-27T07:54:08.978Z,116.90
2018-12-27T07:55:08.954Z,115.30
2018-12-27T07:56:08.923Z,114.70
2018-12-27T07:57:08.934Z,108.50
2018-12-27T07:58:08.893Z,108.20
2018-12-27T07:59:08.897Z,110.90
2018-12-27T08:00:08.895Z,117.50
2018-12-27T08:01:08.871Z,106.50
2018-12-27T08:02:08.860Z,111.70
2018-12-27T08:03:08.850Z,98.90
2018-12-27T08:04:08.832Z,114.70
2018-12-27T08:05:08.845Z,95.60
2018-12-27T08:06:08.814Z,115.90
2018-12-27T08:07:08.803Z,129.80
2018-12-27T08:08:08.810Z,119.70
2018-12-27T08:09:08.795Z,114.10
2018-12-27T08:10:08.771Z,114.10
2018-12-27T08:11:08.786Z,122.10
2018-12-27T08:12:08.750Z,114.50
2018-12-27T08:13:08.749Z,153.30
2018-12-27T08:14:08.751Z,117.60
2018-12-27T08:15:08.721Z,113.30
2018-12-27T08:16:08.699Z,108.60
2018-12-27T08:17:08.709Z,126.80
2018-12-27T08:18:08.695Z,111.80
2018-12-27T08:19:08.669Z,125.80
2018-12-27T08:20:08.662Z,112.80
2018-12-27T08:21:08.658Z,114.40
2018-12-27T08:22:08.676Z,122.60
2018-12-27T08:23:08.624Z,110.90
2018-12-27T08:24:08.614Z,105.50
2018-12-27T08:25:08.614Z,120.20
2018-12-27T08:26:08.610Z,109.20
2018-12-27T08:27:08.592Z,108.20
2018-12-27T08:28:08.625Z,119.30
2018-12-27T08:29:08.558Z,139.50
2018-12-27T08:30:08.574Z,116.40
2018-12-27T08:31:08.583Z,117.10
2018-12-27T08:32:08.537Z,144.20
2018-12-27T08:33:08.535Z,104.40
2018-12-27T08:34:08.551Z,131.90
2018-12-27T08:35:11.578Z,126.20
2018-12-27T08:36:08.495Z,133.20
2018-12-27T08:37:08.479Z,114.70
2018-12-27T08:38:08.468Z,148.10
2018-12-27T08:39:08.460Z,123.90
2018-12-27T08:40:08.485Z,141.90
2018-12-27T08:41:08.435Z,115.00
2018-12-27T08:42:08.426Z,143.30
2018-12-27T08:43:08.429Z,147.90
2018-12-27T08:44:08.409Z,131.30
2018-12-27T08:45:08.394Z,169.10
2018-12-27T08:46:08.413Z,119.90
2018-12-27T08:47:08.371Z,122.30
2018-12-27T08:48:08.357Z,151.50
2018-12-27T08:49:08.358Z,188.80
2018-12-27T08:50:08.351Z,134.50
2018-12-27T08:51:08.322Z,133.50
2018-12-27T08:52:08.332Z,129.60
2018-12-27T08:53:08.303Z,111.70
2018-12-27T08:54:08.301Z,150.60
2018-12-27T08:55:08.278Z,130.40
2018-12-27T08:56:08.275Z,160.20
2018-12-27T08:57:08.283Z,158.00
2018-12-27T08:58:08.251Z,149.80
2018-12-27T08:59:08.235Z,148.70
2018-12-27T09:00:08.224Z,138.20
2018-12-27T09:01:08.210Z,153.10
2018-12-27T09:02:08.199Z,135.00
2018-12-27T09:03:08.226Z,164.30
2018-12-27T09:04:08.191Z,142.80
2018-12-27T09:05:08.171Z,232.80
2018-12-27T09:06:08.161Z,213.00
2018-12-27T09:07:08.149Z,166.50
2018-12-27T09:08:08.142Z,165.80
2018-12-27T09:09:08.194Z,152.80
2018-12-27T09:10:08.123Z,147.20
2018-12-27T09:11:08.109Z,148.50
2018-12-27T09:12:08.096Z,140.10
2018-12-27T09:13:08.088Z,141.80
2018-12-27T09:14:08.103Z,157.80
2018-12-27T09:15:08.075Z,147.90
2018-12-27T09:16:08.061Z,151.40
2018-12-27T09:17:08.053Z,176.70
2018-12-27T09:18:08.055Z,172.70
2018-12-27T09:19:08.041Z,156.50
2018-12-27T09:20:08.057Z,141.60
2018-12-27T09:21:07.997Z,160.10
2018-12-27T09:22:07.985Z,170.10
2018-12-27T09:23:07.972Z,165.60
2018-12-27T09:24:07.966Z,173.70
2018-12-27T09:25:07.959Z,162.50
2018-12-27T09:26:07.967Z,166.10
2018-12-27T09:27:07.932Z,168.50
2018-12-27T09:28:07.939Z,161.30
2018-12-27T09:29:07.915Z,165.60
2018-12-27T09:30:07.900Z,151.20
2018-12-27T09:31:07.925Z,120.80
2018-12-27T09:32:07.880Z,159.70
2018-12-27T09:33:07.867Z,169.80
2018-12-27T09:34:07.862Z,172.60
2018-12-27T09:35:07.842Z,130.10
2018-12-27T09:36:07.838Z,164.50
2018-12-27T09:37:07.871Z,145.60
2018-12-27T09:38:07.814Z,161.80
2018-12-27T09:39:07.809Z,167.70
2018-12-27T09:40:07.786Z,172.70
2018-12-27T09:41:07.790Z,159.30
2018-12-27T09:42:07.786Z,181.70
2018-12-27T09:43:07.796Z,184.50
2018-12-27T09:44:07.757Z,149.50
2018-12-27T09:45:07.834Z,159.40
2018-12-27T09:46:07.725Z,148.70
2018-12-27T09:47:07.721Z,105.90
2018-12-27T09:48:07.727Z,148.60
2018-12-27T09:49:07.715Z,168.20
2018-12-27T09:50:07.681Z,168.30
2018-12-27T09:51:07.685Z,157.60
2018-12-27T09:52:07.683Z,202.50
2018-12-27T09:53:07.657Z,165.60
2018-12-27T09:54:07.674Z,196.50
2018-12-27T09:55:07.643Z,166.90
2018-12-27T09:56:07.628Z,163.70
2018-12-27T09:57:07.612Z,165.20
2018-12-27T09:58:07.599Z,199.50
2018-12-27T09:59:07.591Z,162.50
2018-12-27T10:00:07.591Z,214.60
2018-12-27T10:01:07.575Z,158.60
2018-12-27T10:02:07.636Z,188.60
2018-12-27T10:03:07.545Z,176.90
2018-12-27T10:04:07.537Z,161.20
2018-12-27T10:05:07.556Z,152.00
2018-12-27T10:06:07.523Z,166.40
2018-12-27T10:07:07.521Z,157.40
2018-12-27T10:08:07.500Z,148.70
2018-12-27T10:09:07.486Z,120.00
2018-12-27T10:10:07.469Z,177.50
2018-12-27T10:11:07.492Z,165.90
2018-12-27T10:12:07.455Z,179.60
2018-12-27T10:13:07.454Z,203.50
2018-12-27T10:14:07.438Z,164.80
2018-12-27T10:15:07.423Z,139.40
2018-12-27T10:16:07.422Z,137.80
2018-12-27T10:17:07.421Z,154.20
2018-12-27T10:18:07.393Z,152.90
2018-12-27T10:19:07.382Z,156.60
2018-12-27T10:20:07.366Z,141.20
2018-12-27T10:21:07.358Z,155.80
2018-12-27T10:22:07.395Z,147.30
2018-12-27T10:23:07.339Z,179.30
2018-12-27T10:24:07.323Z,153.40
2018-12-27T10:25:07.318Z,150.40
2018-12-27T10:26:07.304Z,131.30
2018-12-27T10:27:07.297Z,139.30
2018-12-27T10:28:07.322Z,152.90
2018-12-27T10:29:07.283Z,159.40
2018-12-27T10:30:07.316Z,151.70
2018-12-27T10:31:07.257Z,119.60
2018-12-27T10:32:07.253Z,125.80
2018-12-27T10:33:07.226Z,129.40
2018-12-27T10:34:07.237Z,150.90
2018-12-27T10:35:07.207Z,158.50
2018-12-27T10:36:07.202Z,150.40
2018-12-27T10:37:07.183Z,152.40
2018-12-27T10:38:07.176Z,88.30
2018-12-27T10:39:07.237Z,118.80
2018-12-27T10:40:07.167Z,162.40
2018-12-27T10:41:07.153Z,165.90
2018-12-27T10:42:07.138Z,142.70
2018-12-27T10:43:07.138Z,157.70
2018-12-27T10:44:07.145Z,163.60
2018-12-27T10:45:07.112Z,139.80
2018-12-27T10:46:07.103Z,138.40
2018-12-27T10:47:07.079Z,163.10
2018-12-27T10:48:07.068Z,184.50
2018-12-27T10:49:07.062Z,194.70
2018-12-27T10:50:07.082Z,151.20
2018-12-27T10:51:07.041Z,174.80
2018-12-27T10:52:07.076Z,139.10
2018-12-27T10:53:07.030Z,118.60
2018-12-27T10:54:07.012Z,161.60
2018-12-27T10:55:07.000Z,173.50
2018-12-27T10:56:07.010Z,180.40
2018-12-27T10:57:06.969Z,122.70
2018-12-27T10:58:06.985Z,159.40
2018-12-27T10:59:06.956Z,174.70
2018-12-27T11:00:06.940Z,151.20
2018-12-27T11:01:06.975Z,164.40
2018-12-27T11:02:06.924Z,131.20
2018-12-27T11:03:06.914Z,169.80
2018-12-27T11:04:06.908Z,177.30
2018-12-27T11:05:06.895Z,192.40
2018-12-27T11:06:06.882Z,164.40
2018-12-27T11:07:06.891Z,191.80
2018-12-27T11:08:06.884Z,185.30
2018-12-27T11:09:06.843Z,168.10
2018-12-27T11:10:06.842Z,192.10
2018-12-27T11:11:06.876Z,159.50
2018-12-27T11:12:06.844Z,157.00
2018-12-27T11:13:06.831Z,171.70
2018-12-27T11:14:06.795Z,199.10
2018-12-27T11:15:06.781Z,200.40
2018-12-27T11:16:06.785Z,193.80
2018-12-27T11:17:06.786Z,176.20
2018-12-27T11:18:06.763Z,159.30
2018-12-27T11:19:06.747Z,171.50
2018-12-27T11:20:06.737Z,139.10
2018-12-27T11:21:06.719Z,143.60
2018-12-27T11:22:06.730Z,173.10
2018-12-27T11:23:06.740Z,181.60
2018-12-27T11:24:06.697Z,195.00
2018-12-27T11:25:06.679Z,235.10
2018-12-27T11:26:06.667Z,200.50
2018-12-27T11:27:06.656Z,146.30
2018-12-27T11:28:06.658Z,188.10
2018-12-27T11:29:06.657Z,125.70
2018-12-27T11:30:06.633Z,190.20
2018-12-27T11:31:06.611Z,193.30
2018-12-27T11:32:06.605Z,174.60
2018-12-27T11:33:06.591Z,205.80
2018-12-27T11:34:06.800Z,175.20
2018-12-27T11:35:06.567Z,175.80
2018-12-27T11:36:06.602Z,191.30
2018-12-27T11:37:06.550Z,264.70
2018-12-27T11:38:06.533Z,214.10
2018-12-27T11:39:06.538Z,199.00
2018-12-27T11:40:06.534Z,165.20
2018-12-27T11:41:06.529Z,177.00
2018-12-27T11:42:06.505Z,178.40
2018-12-27T11:43:06.556Z,151.20
2018-12-27T11:44:06.484Z,161.90
2018-12-27T11:45:06.490Z,182.20
2018-12-27T11:46:06.456Z,179.70
2018-12-27T11:47:06.440Z,166.60
2018-12-27T11:48:06.429Z,188.80
2018-12-27T11:49:06.425Z,179.20
2018-12-27T11:50:06.403Z,173.00
2018-12-27T11:51:06.438Z,163.30
2018-12-27T11:52:06.381Z,170.80
2018-12-27T11:53:06.395Z,168.70
2018-12-27T11:54:06.359Z,164.10
2018-12-27T11:55:06.359Z,171.10
2018-12-27T11:56:06.369Z,172.40
2018-12-27T11:57:06.337Z,164.80
2018-12-27T11:58:06.331Z,164.40
2018-12-27T11:59:06.337Z,153.20
2018-12-27T12:00:06.310Z,200.90
2018-12-27T12:01:06.302Z,145.50
2018-12-27T12:02:06.315Z,174.10
2018-12-27T12:03:06.272Z,206.60
2018-12-27T12:04:06.266Z,180.00
2018-12-27T12:05:06.248Z,189.30
2018-12-27T12:06:06.234Z,170.50
2018-12-27T12:07:06.252Z,174.30
2018-12-27T12:08:06.216Z,196.10
2018-12-27T12:09:06.221Z,169.40
2018-12-27T12:10:06.206Z,197.80
2018-12-27T12:11:06.183Z,184.20
2018-12-27T12:12:06.176Z,160.10
2018-12-27T12:13:06.198Z,191.50
2018-12-27T12:14:06.154Z,156.10
2018-12-27T12:15:06.159Z,178.60
2018-12-27T12:16:06.140Z,185.50
2018-12-27T12:17:06.124Z,172.20
2018-12-27T12:18:06.122Z,166.60
2018-12-27T12:19:06.112Z,208.70
2018-12-27T12:20:06.086Z,177.90
2018-12-27T12:21:06.093Z,183.40
2018-12-27T12:22:06.079Z,182.10
2018-12-27T12:23:06.063Z,133.80
2018-12-27T12:24:06.104Z,163.50
2018-12-27T12:25:06.035Z,186.60
2018-12-27T12:26:06.042Z,158.80
2018-12-27T12:27:06.011Z,158.20
2018-12-27T12:28:05.998Z,192.80
2018-12-27T12:29:05.992Z,162.50
2018-12-27T12:30:06.024Z,170.90
2018-12-27T12:31:05.973Z,161.80
2018-12-27T12:32:05.960Z,150.00
2018-12-27T12:33:05.963Z,156.90
2018-12-27T12:34:05.966Z,132.50